createdAt,value
2023-05-19T00:01:20.468Z,15.23
2023-05-19T00:03:54.962Z,15.24
2023-05-19T00:06:27.043Z,15.21
2023-05-19T00:09:01.571Z,15.17
2023-05-19T00:11:29.662Z,15.15
2023-05-19T00:13:58.734Z,15.13
2023-05-19T00:16:27.480Z,15.09
2023-05-19T00:18:54.496Z,14.94
2023-05-19T00:21:21.361Z,14.93
2023-05-19T00:23:48.257Z,14.90
2023-05-19T00:26:15.133Z,14.86
2023-05-19T00:28:41.968Z,14.80
2023-05-19T00:31:08.820Z,14.80
2023-05-19T00:33:35.876Z,14.80
2023-05-19T00:36:04.169Z,14.76
2023-05-19T00:38:31.936Z,14.72
2023-05-19T00:40:59.507Z,14.65
2023-05-19T00:43:26.564Z,14.63
2023-05-19T00:45:53.815Z,14.61
2023-05-19T00:48:21.190Z,14.62
2023-05-19T00:50:50.265Z,14.60
2023-05-19T00:53:18.066Z,14.41
2023-05-19T00:55:45.591Z,14.39
2023-05-19T00:58:12.987Z,14.36
2023-05-19T01:00:40.691Z,14.33
2023-05-19T01:03:13.731Z,14.33
2023-05-19T01:05:53.863Z,14.24
2023-05-19T01:08:20.851Z,14.18
2023-05-19T01:10:47.994Z,14.19
2023-05-19T01:13:15.283Z,14.20
2023-05-19T01:16:07.160Z,14.14
2023-05-19T01:19:01.878Z,14.09
2023-05-19T01:21:38.026Z,14.06
2023-05-19T01:24:04.894Z,14.01
2023-05-19T01:26:34.780Z,13.94
2023-05-19T01:29:12.075Z,13.90
2023-05-19T01:31:42.390Z,13.89
2023-05-19T01:34:12.300Z,13.83
2023-05-19T01:36:44.949Z,13.78
2023-05-19T01:39:13.127Z,13.71
2023-05-19T01:41:42.083Z,13.64
2023-05-19T01:44:10.111Z,13.54
2023-05-19T01:46:38.085Z,13.53
2023-05-19T01:49:06.491Z,13.42
2023-05-19T01:51:33.393Z,13.32
2023-05-19T01:54:00.492Z,13.20
2023-05-19T01:56:41.108Z,13.12
2023-05-19T01:59:35.137Z,13.00
2023-05-19T02:02:08.485Z,12.91
2023-05-19T02:04:54.570Z,12.91
2023-05-19T02:07:41.904Z,12.87
2023-05-19T02:10:18.765Z,12.83
2023-05-19T02:12:46.568Z,12.75
2023-05-19T02:15:18.155Z,12.65
2023-05-19T02:17:50.813Z,12.65
2023-05-19T02:20:40.876Z,12.55
2023-05-19T02:23:07.777Z,12.50
2023-05-19T02:25:34.677Z,12.50
2023-05-19T02:28:01.697Z,12.48
2023-05-19T02:30:28.758Z,12.45
2023-05-19T02:32:55.622Z,12.40
2023-05-19T02:35:22.626Z,12.32
2023-05-19T02:37:49.474Z,12.28
2023-05-19T02:40:17.663Z,12.23
2023-05-19T02:42:44.699Z,12.22
2023-05-19T02:45:11.927Z,12.20
2023-05-19T02:47:38.809Z,12.16
2023-05-19T02:50:06.478Z,12.12
2023-05-19T02:52:33.411Z,12.08
2023-05-19T02:55:00.690Z,12.04
2023-05-19T02:57:27.552Z,12.00
2023-05-19T02:59:54.570Z,11.97
2023-05-19T03:02:21.694Z,11.89
2023-05-19T03:04:48.584Z,11.95
2023-05-19T03:07:15.711Z,11.97
2023-05-19T03:09:42.789Z,11.96
2023-05-19T03:12:09.928Z,11.94
2023-05-19T03:14:38.797Z,11.92
2023-05-19T03:17:07.942Z,11.78
2023-05-19T03:19:35.020Z,11.77
2023-05-19T03:22:02.194Z,11.73
2023-05-19T03:24:29.116Z,11.67
2023-05-19T03:26:56.109Z,11.68
2023-05-19T03:29:22.983Z,11.72
2023-05-19T03:31:49.879Z,11.74
2023-05-19T03:34:16.893Z,11.75
2023-05-19T03:36:45.141Z,11.74
2023-05-19T03:39:12.284Z,11.67
2023-05-19T03:41:39.158Z,11.62
2023-05-19T03:44:06.014Z,11.62
2023-05-19T03:46:32.890Z,11.57
2023-05-19T03:48:59.764Z,11.51
2023-05-19T03:51:28.689Z,11.52
2023-05-19T03:53:56.065Z,11.51
2023-05-19T03:56:24.226Z,11.52
2023-05-19T03:58:51.099Z,11.51
2023-05-19T04:01:18.411Z,11.50
2023-05-19T04:03:45.451Z,11.54
2023-05-19T04:06:13.075Z,11.56
2023-05-19T04:08:40.263Z,11.51
2023-05-19T04:11:07.129Z,11.55
2023-05-19T04:13:35.108Z,11.57
2023-05-19T04:16:02.197Z,11.56
2023-05-19T04:18:29.367Z,11.56
2023-05-19T04:20:56.485Z,11.54
2023-05-19T04:23:23.534Z,11.51
2023-05-19T04:25:50.564Z,11.50
2023-05-19T04:28:18.183Z,11.52
2023-05-19T04:30:46.782Z,11.55
2023-05-19T04:33:13.947Z,11.57
2023-05-19T04:35:41.012Z,11.57
2023-05-19T04:38:07.913Z,11.63
2023-05-19T04:40:34.936Z,11.69
2023-05-19T04:43:02.342Z,11.68
2023-05-19T04:45:30.173Z,11.70
2023-05-19T04:47:58.327Z,11.72
2023-05-19T04:50:25.444Z,11.74
2023-05-19T04:52:52.365Z,11.77
2023-05-19T04:55:19.846Z,11.78
2023-05-19T04:57:47.687Z,11.79
2023-05-19T05:00:15.536Z,11.80
2023-05-19T05:02:43.078Z,11.79
2023-05-19T05:05:10.278Z,11.79
2023-05-19T05:07:37.212Z,11.81
2023-05-19T05:10:04.634Z,11.84
2023-05-19T05:12:32.963Z,11.88
2023-05-19T05:15:00.373Z,11.89
2023-05-19T05:17:28.437Z,11.90
2023-05-19T05:19:55.708Z,11.94
2023-05-19T05:22:22.948Z,12.00
2023-05-19T05:24:50.046Z,12.05
2023-05-19T05:27:16.864Z,12.06
2023-05-19T05:29:43.883Z,12.05
2023-05-19T05:32:10.844Z,12.02
2023-05-19T05:34:39.963Z,12.02
2023-05-19T05:37:06.934Z,12.02
2023-05-19T05:39:33.884Z,12.03
2023-05-19T05:42:01.158Z,12.01
2023-05-19T05:44:28.111Z,12.02
2023-05-19T05:46:55.304Z,12.04
2023-05-19T05:49:22.424Z,12.06
2023-05-19T05:52:04.412Z,12.08
2023-05-19T05:54:33.227Z,12.13
2023-05-19T05:57:00.757Z,12.18
2023-05-19T05:59:27.684Z,12.21
2023-05-19T06:01:54.608Z,12.18
2023-05-19T06:04:21.482Z,12.21
2023-05-19T06:06:48.430Z,12.23
2023-05-19T06:09:15.377Z,12.25
2023-05-19T06:11:42.189Z,12.28
2023-05-19T06:14:09.112Z,12.33
2023-05-19T06:16:36.122Z,12.41
2023-05-19T06:19:03.003Z,12.45
2023-05-19T06:21:29.918Z,12.49
2023-05-19T06:23:56.757Z,12.54
2023-05-19T06:26:23.628Z,12.58
2023-05-19T06:28:50.612Z,12.63
2023-05-19T06:31:17.649Z,12.69
2023-05-19T06:33:44.501Z,12.75
2023-05-19T06:36:12.162Z,12.84
2023-05-19T06:38:38.997Z,12.90
2023-05-19T06:41:05.983Z,12.98
2023-05-19T06:43:32.995Z,13.09
2023-05-19T06:45:59.948Z,13.18
2023-05-19T06:48:26.846Z,13.24
2023-05-19T06:50:54.221Z,13.29
2023-05-19T06:53:21.466Z,13.38
2023-05-19T06:55:59.255Z,13.48
2023-05-19T06:58:27.324Z,13.56
2023-05-19T07:00:54.502Z,13.64
2023-05-19T07:03:21.460Z,13.76
2023-05-19T07:05:48.553Z,13.78
2023-05-19T07:08:15.392Z,13.76
2023-05-19T07:10:42.313Z,13.82
2023-05-19T07:13:09.139Z,13.87
2023-05-19T07:15:36.008Z,13.90
2023-05-19T07:18:02.948Z,13.94
2023-05-19T07:20:29.914Z,13.94
2023-05-19T07:22:56.812Z,13.87
2023-05-19T07:25:23.922Z,13.80
2023-05-19T07:27:50.889Z,13.81
2023-05-19T07:30:17.878Z,13.93
2023-05-19T07:32:44.778Z,14.07
2023-05-19T07:35:11.808Z,14.15
2023-05-19T07:37:38.679Z,14.24
2023-05-19T07:40:09.248Z,14.33
2023-05-19T07:42:36.077Z,14.38
2023-05-19T07:45:03.669Z,14.39
2023-05-19T07:47:32.980Z,14.41
2023-05-19T07:50:00.201Z,14.50
2023-05-19T07:52:27.128Z,14.58
2023-05-19T07:54:54.057Z,14.67
2023-05-19T07:57:20.956Z,14.73
2023-05-19T07:59:47.924Z,14.77
2023-05-19T08:02:14.839Z,14.84
2023-05-19T08:04:41.908Z,14.94
2023-05-19T08:07:08.966Z,15.09
2023-05-19T08:09:35.954Z,15.21
2023-05-19T08:12:05.015Z,15.22
2023-05-19T08:14:33.457Z,15.28
2023-05-19T08:17:00.351Z,15.26
2023-05-19T08:19:27.214Z,15.25
2023-05-19T08:21:54.146Z,15.26
2023-05-19T08:24:21.026Z,15.19
2023-05-19T08:26:47.882Z,15.31
2023-05-19T08:29:14.784Z,15.48
2023-05-19T08:31:41.678Z,15.68
2023-05-19T08:34:08.941Z,15.85
2023-05-19T08:36:35.809Z,16.00
2023-05-19T08:39:02.827Z,16.16
2023-05-19T08:41:29.692Z,16.33
2023-05-19T08:43:56.552Z,16.46
2023-05-19T08:46:25.669Z,16.62
2023-05-19T08:48:58.821Z,16.81
2023-05-19T08:51:35.612Z,16.82
2023-05-19T08:54:12.761Z,16.90
2023-05-19T08:56:39.787Z,17.01
2023-05-19T08:59:08.083Z,17.20
2023-05-19T09:04:05.807Z,17.40
2023-05-19T09:06:33.000Z,17.51
2023-05-19T09:08:59.941Z,17.47
2023-05-19T09:11:27.280Z,17.46
2023-05-19T09:13:54.370Z,17.53
2023-05-19T09:16:21.775Z,17.59
2023-05-19T09:18:58.913Z,17.73
2023-05-19T09:21:32.514Z,17.81
2023-05-19T09:24:08.385Z,17.81
2023-05-19T09:26:40.201Z,17.77
2023-05-19T09:29:13.664Z,17.62
2023-05-19T09:31:49.035Z,17.52
2023-05-19T09:34:16.554Z,17.45
2023-05-19T09:36:43.445Z,17.40
2023-05-19T09:39:17.316Z,17.36
2023-05-19T09:41:44.678Z,17.21
2023-05-19T09:44:23.425Z,17.22
2023-05-19T09:46:50.965Z,17.12
2023-05-19T09:49:32.788Z,17.16
2023-05-19T09:52:03.716Z,17.24
2023-05-19T09:54:32.576Z,17.22
2023-05-19T09:57:00.983Z,17.37
2023-05-19T09:59:32.061Z,17.38
2023-05-19T10:02:01.153Z,17.49
2023-05-19T10:04:29.804Z,17.63
2023-05-19T10:07:05.697Z,17.80
2023-05-19T10:09:34.247Z,17.93
2023-05-19T10:12:02.678Z,17.97
2023-05-19T10:14:30.251Z,18.09
2023-05-19T10:16:59.195Z,18.19
2023-05-19T10:19:29.094Z,18.31
2023-05-19T10:21:56.560Z,18.34
2023-05-19T10:24:23.604Z,18.44
2023-05-19T10:27:14.744Z,18.60
2023-05-19T10:29:49.289Z,18.59
2023-05-19T10:32:26.570Z,18.52
2023-05-19T10:35:18.944Z,18.44
2023-05-19T10:37:52.595Z,18.47
2023-05-19T10:40:27.855Z,18.45
2023-05-19T10:43:13.352Z,18.36
2023-05-19T10:45:53.084Z,18.37
2023-05-19T10:48:23.961Z,18.32
2023-05-19T10:50:55.478Z,18.35
2023-05-19T10:53:23.083Z,18.30
2023-05-19T10:55:59.289Z,18.27
2023-05-19T10:58:46.580Z,18.17
2023-05-19T11:01:17.223Z,18.16
2023-05-19T11:03:57.302Z,18.17
2023-05-19T11:06:28.737Z,18.21
2023-05-19T11:09:04.936Z,18.24
2023-05-19T11:11:51.196Z,18.33
2023-05-19T11:14:21.602Z,18.38
2023-05-19T11:16:51.765Z,18.34
2023-05-19T11:19:35.492Z,18.40
2023-05-19T11:22:10.572Z,18.38
2023-05-19T11:24:45.974Z,18.44
2023-05-19T11:27:31.287Z,18.46
2023-05-19T11:30:11.856Z,18.57
2023-05-19T11:32:39.599Z,18.72
2023-05-19T11:35:08.048Z,18.95
2023-05-19T11:37:35.984Z,19.13
2023-05-19T11:40:07.056Z,19.22
2023-05-19T11:42:35.603Z,19.31
2023-05-19T11:45:03.098Z,19.30
2023-05-19T11:47:45.875Z,19.58
2023-05-19T11:50:14.253Z,19.97
2023-05-19T11:52:45.188Z,20.11
2023-05-19T11:55:16.607Z,19.97
2023-05-19T11:58:02.916Z,19.69
2023-05-19T12:00:37.645Z,19.36
2023-05-19T12:03:05.385Z,19.10
2023-05-19T12:05:35.488Z,18.97
2023-05-19T12:08:06.485Z,18.82
2023-05-19T12:10:34.819Z,18.77
2023-05-19T12:13:02.455Z,18.66
2023-05-19T12:15:29.574Z,18.61
2023-05-19T12:17:58.501Z,18.62
2023-05-19T12:20:26.642Z,18.55
2023-05-19T12:22:58.685Z,18.50
2023-05-19T12:25:26.067Z,18.52
2023-05-19T12:27:58.361Z,18.51
2023-05-19T12:30:28.063Z,18.44
2023-05-19T12:32:57.810Z,18.35
2023-05-19T12:35:29.144Z,18.24
2023-05-19T12:37:56.071Z,18.21
2023-05-19T12:40:23.062Z,18.15
2023-05-19T12:42:52.240Z,18.10
2023-05-19T12:45:22.959Z,17.99
2023-05-19T12:47:51.323Z,17.93
2023-05-19T12:50:19.063Z,17.92
2023-05-19T12:52:48.401Z,17.93
2023-05-19T12:55:16.779Z,17.93
2023-05-19T12:57:49.893Z,17.90
2023-05-19T13:00:20.881Z,17.93
2023-05-19T13:03:05.933Z,17.97
2023-05-19T13:05:35.337Z,17.93
2023-05-19T13:08:06.214Z,17.86
2023-05-19T13:10:34.702Z,17.80
2023-05-19T13:13:03.466Z,17.76
2023-05-19T13:15:34.582Z,17.71
2023-05-19T13:18:03.789Z,17.70
2023-05-19T13:20:31.204Z,17.67
2023-05-19T13:22:58.221Z,17.67
2023-05-19T13:25:25.921Z,17.64
2023-05-19T13:27:53.148Z,17.52
2023-05-19T13:30:22.009Z,17.53
2023-05-19T13:32:48.879Z,17.41
2023-05-19T13:35:22.593Z,17.47
2023-05-19T13:37:49.853Z,17.51
2023-05-19T13:40:17.759Z,17.48
2023-05-19T13:42:45.388Z,17.47
2023-05-19T13:45:12.615Z,17.42
2023-05-19T13:47:39.670Z,17.42
2023-05-19T13:50:07.185Z,17.43
2023-05-19T13:52:34.444Z,17.40
2023-05-19T13:55:01.356Z,17.38
2023-05-19T13:57:30.867Z,17.38
2023-05-19T14:00:03.245Z,17.33
2023-05-19T14:02:32.382Z,17.31
2023-05-19T14:04:59.661Z,17.29
2023-05-19T14:07:27.321Z,17.30
2023-05-19T14:09:54.162Z,17.28
2023-05-19T14:12:27.855Z,17.24
2023-05-19T14:14:58.812Z,17.23
2023-05-19T14:17:28.063Z,17.22
2023-05-19T14:19:54.991Z,17.08
2023-05-19T14:22:21.796Z,17.07
2023-05-19T14:24:48.731Z,17.06
2023-05-19T14:27:16.022Z,17.04
2023-05-19T14:29:43.275Z,17.05
2023-05-19T14:32:10.268Z,17.05
2023-05-19T14:34:37.267Z,17.08
2023-05-19T14:37:04.313Z,17.06
2023-05-19T14:39:31.576Z,17.08
2023-05-19T14:41:59.796Z,17.05
2023-05-19T14:44:35.499Z,17.07
2023-05-19T14:47:02.560Z,17.07
2023-05-19T14:49:29.930Z,17.07
2023-05-19T14:51:56.882Z,17.07
2023-05-19T14:54:23.879Z,17.07
2023-05-19T14:56:50.843Z,17.05
2023-05-19T14:59:17.842Z,17.02
2023-05-19T15:01:44.889Z,16.95
2023-05-19T15:04:11.998Z,16.87
2023-05-19T15:06:38.863Z,16.80
2023-05-19T15:09:05.835Z,16.73
2023-05-19T15:11:32.763Z,16.67
2023-05-19T15:13:59.769Z,16.63
2023-05-19T15:16:26.818Z,16.59
2023-05-19T15:18:53.747Z,16.53
2023-05-19T15:21:20.722Z,16.50
2023-05-19T15:23:47.676Z,16.44
2023-05-19T15:26:14.725Z,16.36
2023-05-19T15:28:41.701Z,16.31
2023-05-19T15:31:08.689Z,16.22
2023-05-19T15:33:36.309Z,16.18
2023-05-19T15:36:03.368Z,16.16
2023-05-19T15:38:30.654Z,16.17
2023-05-19T15:40:57.949Z,16.18
2023-05-19T15:43:25.402Z,16.15
2023-05-19T15:45:55.075Z,16.11
2023-05-19T15:48:22.103Z,16.06
2023-05-19T15:50:49.088Z,16.04
2023-05-19T15:53:15.966Z,16.05
2023-05-19T15:55:42.840Z,16.07
2023-05-19T15:58:09.693Z,16.10
2023-05-19T16:00:36.741Z,16.10
2023-05-19T16:03:03.838Z,16.11
2023-05-19T16:05:30.761Z,16.09
2023-05-19T16:07:58.941Z,16.07
2023-05-19T16:10:25.824Z,16.02
2023-05-19T16:12:52.761Z,16.08
2023-05-19T16:15:19.656Z,16.10
2023-05-19T16:17:46.599Z,16.09
2023-05-19T16:20:13.551Z,16.05
2023-05-19T16:22:40.406Z,16.04
2023-05-19T16:25:08.142Z,15.99
2023-05-19T16:27:35.032Z,15.92
2023-05-19T16:30:02.720Z,15.86
2023-05-19T16:32:34.062Z,15.80
2023-05-19T16:35:01.104Z,15.75
2023-05-19T16:37:28.289Z,15.69
2023-05-19T16:39:55.127Z,15.62
2023-05-19T16:42:22.732Z,15.57
2023-05-19T16:44:49.601Z,15.52
2023-05-19T16:47:16.591Z,15.51
2023-05-19T16:49:44.176Z,15.46
2023-05-19T16:52:11.322Z,15.43
2023-05-19T16:54:38.216Z,15.37
2023-05-19T16:57:05.478Z,15.27
2023-05-19T16:59:32.432Z,15.18
2023-05-19T17:01:59.382Z,15.12
2023-05-19T17:04:27.057Z,15.05
2023-05-19T17:06:55.652Z,14.95
2023-05-19T17:09:25.367Z,14.90
2023-05-19T17:11:53.662Z,14.84
2023-05-19T17:14:20.988Z,14.74
2023-05-19T17:16:48.564Z,14.68
2023-05-19T17:19:16.400Z,14.64
2023-05-19T17:21:43.352Z,14.57
2023-05-19T17:24:10.464Z,14.50
2023-05-19T17:26:39.098Z,14.44
2023-05-19T17:29:06.127Z,14.38
2023-05-19T17:31:33.028Z,14.30
2023-05-19T17:33:59.945Z,14.21
2023-05-19T17:36:27.004Z,14.12
2023-05-19T17:38:53.978Z,14.05
2023-05-19T17:41:21.103Z,13.95
2023-05-19T17:43:47.980Z,13.92
2023-05-19T17:46:14.894Z,13.87
2023-05-19T17:48:41.893Z,13.78
2023-05-19T17:51:08.886Z,13.71
2023-05-19T17:53:36.694Z,13.66
2023-05-19T17:56:07.074Z,13.58
2023-05-19T17:58:34.441Z,13.52
2023-05-19T18:01:01.476Z,13.46
2023-05-19T18:03:28.817Z,13.40
2023-05-19T18:05:56.104Z,13.34
2023-05-19T18:08:23.366Z,13.29
2023-05-19T18:10:51.763Z,13.22
2023-05-19T18:13:20.120Z,13.14
2023-05-19T18:15:48.631Z,13.09
2023-05-19T18:18:15.736Z,13.04
2023-05-19T18:20:44.876Z,13.02
2023-05-19T18:23:12.534Z,13.00
2023-05-19T18:25:39.533Z,12.95
2023-05-19T18:28:06.764Z,12.90
2023-05-19T18:30:34.496Z,12.85
2023-05-19T18:33:03.932Z,12.81
2023-05-19T18:35:31.154Z,12.78
2023-05-19T18:37:58.036Z,12.72
2023-05-19T18:40:24.981Z,12.67
2023-05-19T18:42:51.924Z,12.63
2023-05-19T18:45:18.982Z,12.59
2023-05-19T18:47:46.525Z,12.55
2023-05-19T18:50:14.477Z,12.51
2023-05-19T18:52:42.753Z,12.46
2023-05-19T18:55:10.140Z,12.40
2023-05-19T18:57:37.150Z,12.35
2023-05-19T19:00:04.483Z,12.34
2023-05-19T19:02:35.866Z,12.27
2023-05-19T19:05:04.122Z,12.22
2023-05-19T19:07:31.632Z,12.17
2023-05-19T19:09:58.600Z,12.16
2023-05-19T19:12:25.534Z,12.14
2023-05-19T19:14:52.441Z,12.08
2023-05-19T19:17:19.488Z,12.03
2023-05-19T19:19:47.306Z,11.99
2023-05-19T19:22:14.325Z,11.94
2023-05-19T19:24:43.178Z,11.91
2023-05-19T19:27:10.900Z,11.75
2023-05-19T19:29:37.685Z,11.74
2023-05-19T19:32:05.046Z,11.72
2023-05-19T19:34:33.168Z,11.69
2023-05-19T19:37:00.323Z,11.65
2023-05-19T19:39:27.230Z,11.64
2023-05-19T19:41:55.222Z,11.59
2023-05-19T19:44:24.940Z,11.55
2023-05-19T19:46:52.270Z,11.52
2023-05-19T19:49:19.224Z,11.46
2023-05-19T19:51:46.152Z,11.45
2023-05-19T19:54:13.057Z,11.40
2023-05-19T19:56:39.968Z,11.38
2023-05-19T19:59:06.866Z,11.34
2023-05-19T20:01:33.854Z,11.30
2023-05-19T20:04:01.055Z,11.27
2023-05-19T20:06:28.064Z,11.20
2023-05-19T20:08:54.952Z,11.15
2023-05-19T20:11:23.882Z,11.11
2023-05-19T20:13:50.814Z,11.10
2023-05-19T20:16:17.738Z,11.07
2023-05-19T20:18:45.855Z,11.02
2023-05-19T20:21:12.797Z,10.94
2023-05-19T20:23:40.823Z,10.93
2023-05-19T20:26:12.479Z,10.86
2023-05-19T20:28:41.245Z,10.84
2023-05-19T20:31:08.667Z,10.76
2023-05-19T20:33:35.680Z,10.74
2023-05-19T20:36:02.686Z,10.67
2023-05-19T20:38:29.696Z,10.64
2023-05-19T20:40:56.556Z,10.59
2023-05-19T20:43:23.466Z,10.57
2023-05-19T20:45:51.555Z,10.55
2023-05-19T20:48:18.596Z,10.48
2023-05-19T20:50:45.872Z,10.46
2023-05-19T20:53:12.800Z,10.46
2023-05-19T20:55:39.758Z,10.47
2023-05-19T20:58:07.036Z,10.49
2023-05-19T21:00:34.121Z,10.50
2023-05-19T21:03:01.668Z,10.52
2023-05-19T21:05:29.157Z,10.52
2023-05-19T21:07:56.359Z,10.49
2023-05-19T21:10:23.379Z,10.50
2023-05-19T21:12:50.372Z,10.49
2023-05-19T21:15:17.295Z,10.47
2023-05-19T21:17:44.166Z,10.50
2023-05-19T21:20:11.428Z,10.48
2023-05-19T21:22:38.426Z,10.45
2023-05-19T21:25:06.280Z,10.40
2023-05-19T21:27:35.581Z,10.40
2023-05-19T21:30:02.649Z,10.43
2023-05-19T21:32:33.102Z,10.41
2023-05-19T21:35:00.401Z,10.44
2023-05-19T21:37:27.271Z,10.48
2023-05-19T21:39:54.151Z,10.50
2023-05-19T21:42:21.037Z,10.51
2023-05-19T21:44:47.912Z,10.52
2023-05-19T21:47:14.889Z,10.56
2023-05-19T21:49:41.881Z,10.57
2023-05-19T21:52:08.753Z,10.58
2023-05-19T21:54:36.268Z,10.54
2023-05-19T21:57:03.261Z,10.58
2023-05-19T21:59:31.006Z,10.60
2023-05-19T22:01:58.597Z,10.61
2023-05-19T22:04:25.703Z,10.64
2023-05-19T22:06:52.674Z,10.64
2023-05-19T22:09:19.562Z,10.66
2023-05-19T22:11:46.449Z,10.69
2023-05-19T22:14:13.339Z,10.70
2023-05-19T22:16:40.307Z,10.73
2023-05-19T22:19:07.683Z,10.75
2023-05-19T22:21:34.630Z,10.77
2023-05-19T22:24:01.489Z,10.80
2023-05-19T22:26:28.726Z,10.82
2023-05-19T22:28:55.772Z,10.83
2023-05-19T22:31:22.723Z,10.87
2023-05-19T22:33:49.645Z,10.89
2023-05-19T22:36:16.599Z,10.91
2023-05-19T22:38:43.458Z,10.93
2023-05-19T22:41:10.283Z,10.93
2023-05-19T22:43:38.072Z,10.96
2023-05-19T22:46:05.155Z,10.97
2023-05-19T22:48:32.015Z,10.98
2023-05-19T22:50:59.079Z,10.97
2023-05-19T22:53:25.993Z,10.98
2023-05-19T22:55:52.881Z,11.01
2023-05-19T22:58:19.758Z,10.99
2023-05-19T23:00:46.665Z,10.99
2023-05-19T23:03:13.605Z,11.02
2023-05-19T23:05:40.693Z,11.02
2023-05-19T23:08:07.595Z,11.04
2023-05-19T23:10:34.517Z,11.03
2023-05-19T23:13:01.431Z,11.03
2023-05-19T23:15:28.404Z,11.03
2023-05-19T23:17:55.373Z,11.03
2023-05-19T23:20:22.392Z,11.02
2023-05-19T23:22:49.255Z,11.01
2023-05-19T23:25:16.465Z,11.01
2023-05-19T23:27:43.356Z,11.01
2023-05-19T23:30:10.467Z,11.02
2023-05-19T23:32:37.371Z,11.03
2023-05-19T23:35:14.431Z,11.04
2023-05-19T23:37:41.653Z,11.02
2023-05-19T23:40:09.079Z,11.00
2023-05-19T23:42:36.701Z,11.01
2023-05-19T23:45:04.111Z,11.01
2023-05-19T23:47:32.567Z,11.00
2023-05-19T23:49:59.497Z,10.99
2023-05-19T23:52:26.496Z,10.97
2023-05-19T23:54:53.428Z,10.97
2023-05-19T23:57:20.558Z,10.93
2023-05-19T23:59:47.591Z,10.90
